Time;durP1;ratioP1;P1;durP2;ratioP2;P2;SDS_P1;SDS_P2;PMS_P1;PMS_P2;Temp;Humidity;BMP_temperature;BMP_pressure;BME280_temperature;BME280_humidity;BME280_pressure;Samples;Min_cycle;Max_cycle;Signal;HPM_P1;HPM_P2
2023/12/03 00:01:41;;;;;;;40.22;20.75;;;3.40;99.90;;;;;;5033469;28;20025;-87
2023/12/03 00:04:07;;;;;;;41.05;20.48;;;3.40;99.90;;;;;;5034566;28;20029;-88
2023/12/03 00:06:33;;;;;;;37.25;19.67;;;3.40;99.90;;;;;;5030948;28;20037;-88
2023/12/03 00:08:59;;;;;;;37.70;21.38;;;3.50;99.90;;;;;;5052698;28;20018;-90
2023/12/03 00:11:24;;;;;;;38.50;21.90;;;3.40;99.90;;;;;;5052426;28;20063;-90
2023/12/03 00:13:50;;;;;;;33.63;19.05;;;3.40;99.90;;;;;;5054913;28;20453;-90
2023/12/03 00:16:15;;;;;;;34.83;18.23;;;3.40;99.90;;;;;;5047807;28;20040;-89
2023/12/03 00:18:41;;;;;;;32.42;18.45;;;3.50;99.90;;;;;;5051124;28;20029;-90
2023/12/03 00:21:07;;;;;;;28.45;16.90;;;3.50;99.90;;;;;;5038905;28;20116;-90
2023/12/03 00:23:32;;;;;;;30.92;18.38;;;3.50;99.90;;;;;;5045438;28;20481;-89
2023/12/03 00:25:58;;;;;;;31.83;17.65;;;3.40;99.90;;;;;;5054134;28;20465;-89
2023/12/03 00:28:23;;;;;;;33.42;18.73;;;3.50;99.90;;;;;;5041590;28;20366;-89
2023/12/03 00:30:49;;;;;;;32.28;20.23;;;3.50;99.90;;;;;;5038911;28;20104;-90
2023/12/03 00:33:14;;;;;;;35.90;19.52;;;3.50;99.90;;;;;;5041949;28;20492;-88
2023/12/03 00:35:40;;;;;;;37.10;18.52;;;3.50;99.90;;;;;;5033889;28;20034;-89
2023/12/03 00:38:05;;;;;;;39.72;20.38;;;3.50;99.90;;;;;;5036473;28;20028;-89
2023/12/03 00:40:31;;;;;;;36.72;20.48;;;3.50;99.90;;;;;;5047186;28;20022;-90
2023/12/03 00:42:57;;;;;;;43.65;21.10;;;3.40;99.90;;;;;;5045107;28;20034;-89
2023/12/03 00:45:22;;;;;;;41.80;22.17;;;3.50;99.90;;;;;;5054847;28;20083;-90
2023/12/03 00:47:48;;;;;;;41.67;22.17;;;3.40;99.90;;;;;;5034723;28;20025;-90
2023/12/03 00:50:14;;;;;;;39.72;21.67;;;3.50;99.90;;;;;;5048467;28;20495;-89
2023/12/03 00:52:39;;;;;;;36.55;20.52;;;4.00;99.90;;;;;;5043281;28;20022;-90
2023/12/03 00:55:05;;;;;;;35.88;19.48;;;3.40;99.90;;;;;;5045252;28;20385;-90
2023/12/03 00:57:30;;;;;;;38.67;21.25;;;3.40;99.90;;;;;;5054874;28;20021;-89
2023/12/03 00:59:56;;;;;;;36.83;21.05;;;3.40;99.90;;;;;;5053892;28;20219;-90
2023/12/03 01:02:22;;;;;;;39.42;21.38;;;3.40;99.90;;;;;;5050709;28;20025;-91
2023/12/03 01:04:47;;;;;;;34.00;19.63;;;3.30;99.90;;;;;;5038513;28;20402;-89
2023/12/03 01:07:13;;;;;;;36.72;21.02;;;3.40;99.90;;;;;;5051150;28;20165;-90
2023/12/03 01:09:40;;;;;;;41.85;21.65;;;3.30;99.90;;;;;;5056722;28;20056;-90
2023/12/03 01:12:06;;;;;;;36.60;21.27;;;3.30;99.90;;;;;;5054396;28;20033;-89
2023/12/03 01:14:32;;;;;;;37.67;20.77;;;3.40;99.90;;;;;;5043465;28;20404;-90
2023/12/03 01:16:57;;;;;;;35.38;20.30;;;3.30;99.90;;;;;;5053423;28;20098;-90
2023/12/03 01:19:23;;;;;;;34.53;19.63;;;3.30;99.90;;;;;;5053916;28;20362;-89
2023/12/03 01:21:48;;;;;;;31.58;18.65;;;3.30;99.90;;;;;;5052780;28;20078;-88
2023/12/03 01:24:14;;;;;;;31.33;18.88;;;3.30;99.90;;;;;;5053226;28;20032;-88
2023/12/03 01:26:40;;;;;;;35.30;20.65;;;3.40;99.90;;;;;;5041588;28;20036;-88
2023/12/03 01:29:05;;;;;;;36.15;21.90;;;3.30;99.90;;;;;;5047806;28;20028;-87
2023/12/03 01:31:31;;;;;;;34.92;19.83;;;3.30;99.90;;;;;;5053390;28;20029;-88
2023/12/03 01:33:56;;;;;;;37.67;20.40;;;3.30;99.90;;;;;;5053843;28;20057;-89
2023/12/03 01:36:22;;;;;;;32.58;20.05;;;3.30;99.90;;;;;;5040678;28;20120;-89
2023/12/03 01:38:47;;;;;;;36.40;19.77;;;3.30;99.90;;;;;;5037762;28;20018;-89
2023/12/03 01:41:13;;;;;;;30.55;18.75;;;3.30;99.90;;;;;;5033891;28;20025;-89
2023/12/03 01:43:49;;;;;;;37.92;20.92;;;3.30;99.90;;;;;;5033120;28;20071;-89
2023/12/03 01:46:15;;;;;;;36.40;20.40;;;3.20;99.90;;;;;;5033767;28;20029;-88
2023/12/03 01:48:42;;;;;;;43.15;21.48;;;3.20;99.90;;;;;;5034409;28;20503;-89
2023/12/03 01:51:08;;;;;;;35.03;21.85;;;3.20;99.90;;;;;;5053410;28;20021;-89
2023/12/03 01:53:35;;;;;;;37.38;21.73;;;3.20;99.90;;;;;;5053021;28;20370;-89
2023/12/03 01:56:01;;;;;;;28.85;19.95;;;3.20;99.90;;;;;;5051658;28;20041;-89
2023/12/03 01:58:27;;;;;;;32.38;20.55;;;3.20;99.90;;;;;;5042150;28;20099;-89
2023/12/03 02:00:52;;;;;;;26.67;19.40;;;3.20;99.90;;;;;;5041137;28;20043;-90
2023/12/03 02:03:18;;;;;;;30.60;20.42;;;3.20;99.90;;;;;;5032764;28;20477;-89
2023/12/03 02:05:48;;;;;;;34.03;20.17;;;3.20;99.90;;;;;;5033761;28;20100;-90
2023/12/03 02:08:14;;;;;;;30.90;20.55;;;3.20;99.90;;;;;;5034853;28;20025;-90
2023/12/03 02:10:40;;;;;;;30.45;19.52;;;3.10;99.90;;;;;;5032545;28;20025;-89
2023/12/03 02:13:06;;;;;;;32.40;19.73;;;3.10;99.90;;;;;;5033455;28;20377;-89
2023/12/03 02:15:31;;;;;;;30.77;20.13;;;3.10;99.90;;;;;;5033839;28;20065;-87
2023/12/03 02:17:57;;;;;;;32.97;19.92;;;3.20;99.90;;;;;;5032582;28;20022;-88
2023/12/03 02:20:22;;;;;;;29.15;19.55;;;3.10;99.90;;;;;;5033649;28;20035;-88
2023/12/03 02:23:01;;;;;;;29.27;19.08;;;3.10;99.90;;;;;;5040047;28;20029;-88
2023/12/03 02:25:26;;;;;;;24.58;17.85;;;3.20;99.90;;;;;;5033414;28;20028;-90
2023/12/03 02:27:52;;;;;;;31.08;18.42;;;3.20;99.90;;;;;;5032160;28;20480;-90
2023/12/03 02:30:17;;;;;;;24.92;16.08;;;3.10;99.90;;;;;;5033376;28;20504;-90
2023/12/03 02:32:43;;;;;;;25.00;17.35;;;3.10;99.90;;;;;;5032597;28;20533;-89
2023/12/03 02:35:08;;;;;;;27.48;17.67;;;3.10;99.90;;;;;;5043856;28;20424;-89
2023/12/03 02:37:34;;;;;;;27.60;18.13;;;3.00;99.90;;;;;;5052730;28;20035;-88
2023/12/03 02:39:59;;;;;;;29.95;17.27;;;3.10;99.90;;;;;;5051864;28;20078;-89
2023/12/03 02:42:25;;;;;;;27.25;16.40;;;3.10;99.90;;;;;;5053169;28;20067;-88
2023/12/03 02:44:50;;;;;;;23.63;16.77;;;3.00;99.90;;;;;;5053126;28;20025;-90
2023/12/03 02:47:16;;;;;;;26.80;16.80;;;3.00;99.90;;;;;;5043682;28;20082;-88
2023/12/03 02:49:41;;;;;;;20.88;15.18;;;3.00;99.90;;;;;;5034318;28;20075;-90
2023/12/03 02:52:09;;;;;;;24.88;16.67;;;3.00;99.90;;;;;;5031892;28;20021;-89
2023/12/03 02:54:37;;;;;;;23.17;15.40;;;3.00;99.90;;;;;;5032207;28;20191;-88
2023/12/03 02:57:05;;;;;;;23.15;16.13;;;3.00;99.90;;;;;;5034921;28;20084;-89
2023/12/03 02:59:31;;;;;;;21.90;15.07;;;2.90;99.90;;;;;;5044314;28;20482;-88
2023/12/03 03:01:56;;;;;;;25.17;16.27;;;2.90;99.90;;;;;;5052372;28;20063;-88
2023/12/03 03:04:22;;;;;;;20.38;15.02;;;2.90;99.90;;;;;;5052473;28;20040;-88
2023/12/03 03:06:47;;;;;;;23.58;16.08;;;2.90;99.90;;;;;;5052086;28;20036;-88
2023/12/03 03:09:13;;;;;;;25.52;15.65;;;2.90;99.90;;;;;;5054433;28;20013;-89
2023/12/03 03:11:38;;;;;;;21.30;15.60;;;2.80;99.90;;;;;;5064655;28;20049;-89
2023/12/03 03:14:04;;;;;;;23.30;15.48;;;2.80;99.90;;;;;;5070070;28;20032;-89
2023/12/03 03:16:29;;;;;;;22.35;14.90;;;2.80;99.90;;;;;;5052539;28;20523;-89
2023/12/03 03:18:55;;;;;;;23.15;14.57;;;2.80;99.90;;;;;;5052373;28;20032;-89
2023/12/03 03:21:21;;;;;;;25.88;16.25;;;2.70;99.90;;;;;;5049022;28;20041;-88
2023/12/03 03:23:46;;;;;;;28.85;15.77;;;2.70;99.90;;;;;;5041792;28;20025;-89
2023/12/03 03:26:12;;;;;;;20.80;14.38;;;2.70;99.90;;;;;;5032627;28;20355;-88
2023/12/03 03:28:37;;;;;;;23.50;14.30;;;2.70;99.90;;;;;;5030357;28;20018;-89
2023/12/03 03:31:03;;;;;;;23.55;16.20;;;2.70;99.90;;;;;;5041693;28;20028;-88
2023/12/03 03:33:29;;;;;;;19.50;14.25;;;2.70;99.90;;;;;;5040606;28;20028;-88
2023/12/03 03:35:54;;;;;;;22.10;14.55;;;2.60;99.90;;;;;;5036621;28;20033;-89
2023/12/03 03:38:20;;;;;;;24.42;15.48;;;2.70;99.90;;;;;;5071946;28;20479;-89
2023/12/03 03:40:46;;;;;;;25.13;16.33;;;2.60;99.90;;;;;;5071919;28;20035;-89
2023/12/03 03:43:11;;;;;;;30.30;17.00;;;2.70;99.90;;;;;;5071705;28;20036;-89
2023/12/03 03:45:37;;;;;;;24.45;15.60;;;2.60;99.90;;;;;;5072384;28;20028;-88
2023/12/03 03:48:03;;;;;;;27.63;15.77;;;2.70;99.90;;;;;;5045337;28;20029;-88
2023/12/03 03:50:28;;;;;;;24.90;15.73;;;2.70;99.90;;;;;;5046213;28;20047;-89
2023/12/03 03:52:54;;;;;;;27.50;16.55;;;2.60;99.90;;;;;;5053832;28;20504;-89
2023/12/03 03:55:20;;;;;;;25.48;15.02;;;2.60;99.90;;;;;;5054449;28;20497;-88
2023/12/03 03:57:45;;;;;;;29.65;16.70;;;2.60;99.90;;;;;;5054708;28;20025;-89
2023/12/03 04:00:11;;;;;;;26.63;15.73;;;2.60;99.90;;;;;;5047513;28;20029;-88
2023/12/03 04:02:37;;;;;;;25.35;16.05;;;2.60;99.90;;;;;;5037836;28;20035;-88
2023/12/03 04:05:02;;;;;;;27.73;16.20;;;2.60;99.90;;;;;;5038806;28;20060;-87
2023/12/03 04:07:28;;;;;;;24.20;14.38;;;2.60;99.90;;;;;;5035592;28;20022;-88
2023/12/03 04:09:54;;;;;;;22.67;14.27;;;2.60;99.90;;;;;;5036753;28;20029;-88
2023/12/03 04:12:19;;;;;;;28.85;16.70;;;2.50;99.90;;;;;;5044273;28;20519;-88
2023/12/03 04:14:45;;;;;;;32.78;16.00;;;2.60;99.90;;;;;;5049752;28;20044;-88
2023/12/03 04:17:10;;;;;;;27.52;15.23;;;2.60;99.90;;;;;;5055066;28;20028;-88
2023/12/03 04:19:36;;;;;;;26.77;16.15;;;2.50;99.90;;;;;;5034125;28;20104;-88
2023/12/03 04:22:01;;;;;;;30.70;15.38;;;2.60;99.90;;;;;;5039156;28;20075;-89
2023/12/03 04:24:27;;;;;;;29.45;16.50;;;2.60;99.90;;;;;;5034181;28;20026;-89
2023/12/03 04:26:53;;;;;;;28.25;15.55;;;2.60;99.90;;;;;;5035745;28;20029;-89
2023/12/03 04:29:18;;;;;;;26.67;15.57;;;2.50;99.90;;;;;;5035766;28;20408;-89
2023/12/03 04:31:44;;;;;;;29.52;16.15;;;2.60;99.90;;;;;;5035066;28;20524;-88
2023/12/03 04:34:09;;;;;;;36.22;16.65;;;2.50;99.90;;;;;;5035167;28;20030;-88
2023/12/03 04:36:35;;;;;;;29.30;17.23;;;2.60;99.90;;;;;;5048116;28;20041;-89
2023/12/03 04:39:01;;;;;;;28.67;14.40;;;2.60;99.90;;;;;;5054650;28;20021;-89
2023/12/03 04:41:37;;;;;;;29.95;16.35;;;2.60;99.90;;;;;;5054968;28;20032;-88
2023/12/03 04:44:04;;;;;;;31.67;15.23;;;2.50;99.90;;;;;;5055753;28;20033;-88
2023/12/03 04:46:29;;;;;;;24.02;15.40;;;2.50;99.90;;;;;;5042034;28;20438;-89
2023/12/03 04:48:55;;;;;;;30.02;16.25;;;2.50;99.90;;;;;;5039246;28;20056;-89
2023/12/03 04:51:21;;;;;;;26.23;15.05;;;2.50;99.90;;;;;;5036635;28;20488;-90
2023/12/03 04:53:47;;;;;;;23.58;14.65;;;2.50;99.90;;;;;;5056518;28;20026;-88
2023/12/03 04:56:12;;;;;;;30.67;15.57;;;2.40;99.90;;;;;;5056972;28;20056;-88
2023/12/03 04:58:38;;;;;;;29.88;15.40;;;2.40;99.90;;;;;;5046739;28;20091;-89
2023/12/03 05:01:03;;;;;;;26.98;16.60;;;2.40;99.90;;;;;;5035225;28;20113;-90
2023/12/03 05:03:29;;;;;;;34.67;16.77;;;2.40;99.90;;;;;;5034700;28;20524;-89
2023/12/03 05:05:54;;;;;;;29.58;15.40;;;2.40;99.90;;;;;;5033706;28;20136;-89
2023/12/03 05:08:20;;;;;;;30.40;16.23;;;2.40;99.90;;;;;;5049534;28;20036;-88
2023/12/03 05:10:46;;;;;;;24.15;14.27;;;2.30;99.90;;;;;;5042626;28;20517;-89
2023/12/03 05:13:11;;;;;;;26.20;16.58;;;2.40;99.90;;;;;;5033633;28;20025;-89
2023/12/03 05:15:37;;;;;;;27.20;15.70;;;2.40;99.90;;;;;;5034818;28;20053;-90
2023/12/03 05:18:03;;;;;;;30.38;16.63;;;3.00;99.90;;;;;;5034405;28;20455;-88
2023/12/03 05:20:29;;;;;;;25.33;14.75;;;2.30;99.90;;;;;;5033681;28;20539;-88
2023/12/03 05:22:54;;;;;;;25.17;14.70;;;2.30;99.90;;;;;;5052250;28;20025;-90
2023/12/03 05:25:20;;;;;;;29.73;15.60;;;2.30;99.90;;;;;;5054425;28;20531;-89
2023/12/03 05:27:46;;;;;;;27.42;16.05;;;2.30;99.90;;;;;;5033916;28;20021;-88
2023/12/03 05:30:14;;;;;;;27.35;15.73;;;2.30;99.90;;;;;;5034413;28;20492;-89
2023/12/03 05:32:41;;;;;;;33.17;17.33;;;2.30;99.90;;;;;;5036161;28;20018;-87
2023/12/03 05:35:07;;;;;;;31.08;16.60;;;2.30;99.90;;;;;;5036827;28;20040;-87
2023/12/03 05:37:33;;;;;;;30.83;16.13;;;2.20;99.90;;;;;;5052738;28;20025;-87
2023/12/03 05:39:58;;;;;;;27.50;16.25;;;2.20;99.90;;;;;;5053020;28;20036;-86
2023/12/03 05:42:24;;;;;;;31.73;16.33;;;2.20;99.90;;;;;;5046227;28;20029;-87
2023/12/03 05:44:49;;;;;;;30.80;15.70;;;2.20;99.90;;;;;;5042222;28;20025;-87
2023/12/03 05:47:15;;;;;;;33.78;17.35;;;2.10;99.90;;;;;;5034049;28;20121;-88
2023/12/03 05:49:41;;;;;;;35.70;16.85;;;2.10;99.90;;;;;;5032400;28;20021;-87
2023/12/03 05:52:07;;;;;;;35.95;18.10;;;2.10;99.90;;;;;;5033699;28;20120;-88
2023/12/03 05:54:33;;;;;;;32.20;17.58;;;2.10;99.90;;;;;;5034778;28;20547;-88
2023/12/03 05:56:59;;;;;;;31.50;17.23;;;2.00;99.90;;;;;;5049211;28;20487;-88
2023/12/03 05:59:25;;;;;;;33.38;18.65;;;2.10;99.90;;;;;;5054224;28;20017;-91
2023/12/03 06:01:51;;;;;;;37.45;17.17;;;2.00;99.90;;;;;;5053710;28;20040;-87
2023/12/03 06:04:18;;;;;;;34.85;17.42;;;2.00;99.90;;;;;;5052268;28;20451;-87
2023/12/03 06:06:43;;;;;;;37.65;18.15;;;2.00;99.90;;;;;;5044267;28;20103;-87
2023/12/03 06:09:09;;;;;;;39.05;18.35;;;2.00;99.90;;;;;;5032617;28;20085;-87
2023/12/03 06:11:35;;;;;;;33.47;18.20;;;2.00;99.90;;;;;;5031997;28;20083;-87
2023/12/03 06:14:01;;;;;;;37.55;18.90;;;2.00;99.90;;;;;;5032501;28;20018;-87
2023/12/03 06:16:27;;;;;;;35.22;18.88;;;2.10;99.90;;;;;;5032529;28;20063;-86
2023/12/03 06:18:53;;;;;;;33.15;16.77;;;2.10;99.90;;;;;;5033874;28;20529;-88
2023/12/03 06:21:18;;;;;;;39.40;19.50;;;2.00;99.90;;;;;;5039020;28;20021;-87
2023/12/03 06:23:44;;;;;;;35.70;17.45;;;1.90;99.90;;;;;;5031741;28;20029;-87
2023/12/03 06:26:09;;;;;;;37.58;19.83;;;1.90;99.90;;;;;;5032196;28;20075;-87
2023/12/03 06:28:35;;;;;;;39.28;19.88;;;2.00;99.90;;;;;;5033028;28;20111;-87
2023/12/03 06:31:01;;;;;;;39.38;18.67;;;2.00;99.90;;;;;;5032755;28;20524;-87
2023/12/03 06:33:26;;;;;;;38.58;19.08;;;2.00;99.90;;;;;;5034789;28;20112;-87
2023/12/03 06:35:53;;;;;;;40.65;19.20;;;2.00;99.90;;;;;;5048763;28;20371;-87
2023/12/03 06:38:19;;;;;;;44.20;20.25;;;1.90;99.90;;;;;;5058650;28;20052;-87
2023/12/03 06:40:45;;;;;;;35.38;17.80;;;2.00;99.90;;;;;;5060843;28;20524;-88
2023/12/03 06:43:10;;;;;;;42.47;19.38;;;1.90;99.90;;;;;;5057021;28;20024;-87
2023/12/03 06:45:37;;;;;;;39.40;20.67;;;1.90;99.90;;;;;;5051817;28;20462;-87
2023/12/03 06:48:03;;;;;;;38.97;19.27;;;1.90;99.90;;;;;;5036473;28;20037;-87
2023/12/03 06:50:29;;;;;;;40.40;20.33;;;1.90;99.90;;;;;;5051370;28;20029;-86
2023/12/03 06:52:54;;;;;;;43.92;22.25;;;1.90;99.90;;;;;;5047504;28;20036;-86
2023/12/03 06:55:20;;;;;;;43.40;20.88;;;2.00;99.90;;;;;;5052414;28;20033;-88
2023/12/03 06:57:45;;;;;;;43.33;21.52;;;1.90;99.90;;;;;;5047227;28;20109;-86
2023/12/03 07:00:11;;;;;;;40.90;20.63;;;1.90;99.90;;;;;;5044961;28;20033;-87
2023/12/03 07:02:37;;;;;;;44.47;21.08;;;1.90;99.90;;;;;;5051607;28;20108;-86
2023/12/03 07:05:03;;;;;;;47.25;21.58;;;1.90;99.90;;;;;;5052131;28;20400;-87
2023/12/03 07:07:30;;;;;;;43.17;21.08;;;1.90;99.90;;;;;;5051735;28;20037;-87
2023/12/03 07:09:55;;;;;;;46.92;21.10;;;1.90;99.90;;;;;;5052470;28;20045;-86
2023/12/03 07:12:21;;;;;;;41.95;20.70;;;1.80;99.90;;;;;;5035312;28;20478;-87
2023/12/03 07:14:46;;;;;;;44.55;21.80;;;1.90;99.90;;;;;;5044701;28;20025;-88
2023/12/03 07:17:12;;;;;;;41.13;20.95;;;1.90;99.90;;;;;;5052141;28;20120;-88
2023/12/03 07:19:45;;;;;;;44.67;20.88;;;1.90;99.90;;;;;;5052027;28;20096;-87
2023/12/03 07:22:11;;;;;;;48.17;20.65;;;1.90;99.90;;;;;;5044852;28;20029;-87
2023/12/03 07:24:41;;;;;;;40.47;20.08;;;1.80;99.90;;;;;;5051317;28;20078;-87
2023/12/03 07:27:07;;;;;;;42.55;20.48;;;1.80;99.90;;;;;;5055173;28;20471;-88
2023/12/03 07:29:33;;;;;;;44.83;20.65;;;1.80;99.90;;;;;;5055737;28;20058;-87
2023/12/03 07:31:59;;;;;;;42.08;19.90;;;1.80;99.90;;;;;;5056095;28;20540;-88
2023/12/03 07:34:28;;;;;;;42.05;19.90;;;1.80;99.90;;;;;;5038769;28;20034;-87
2023/12/03 07:36:54;;;;;;;44.55;19.58;;;1.80;99.90;;;;;;5041963;28;20032;-88
2023/12/03 07:39:20;;;;;;;45.92;21.05;;;1.80;99.90;;;;;;5056570;28;20487;-87
2023/12/03 07:41:53;;;;;;;42.03;20.58;;;1.80;99.90;;;;;;5055358;28;20106;-88
2023/12/03 07:44:18;;;;;;;43.58;21.27;;;1.80;99.90;;;;;;5040966;28;20025;-88
2023/12/03 07:46:44;;;;;;;40.15;19.67;;;1.80;99.90;;;;;;5038210;28;20352;-87
2023/12/03 07:49:10;;;;;;;43.17;19.05;;;1.80;99.90;;;;;;5034909;28;20025;-87
2023/12/03 07:51:35;;;;;;;39.90;19.17;;;1.80;99.90;;;;;;5034843;28;20420;-88
2023/12/03 07:54:01;;;;;;;35.60;18.73;;;1.80;99.90;;;;;;5042842;28;20091;-88
2023/12/03 07:56:36;;;;;;;41.95;19.00;;;1.80;99.90;;;;;;5054038;28;20385;-87
2023/12/03 07:59:02;;;;;;;45.40;19.58;;;1.80;99.90;;;;;;5046434;28;20025;-88
2023/12/03 08:01:28;;;;;;;53.22;22.33;;;1.80;99.90;;;;;;5054493;28;20440;-87
2023/12/03 08:03:53;;;;;;;41.75;20.55;;;1.80;99.90;;;;;;5037386;28;20113;-88
2023/12/03 08:06:19;;;;;;;42.35;19.70;;;1.90;99.90;;;;;;5037851;28;20493;-89
2023/12/03 08:08:45;;;;;;;38.63;19.52;;;1.80;99.90;;;;;;5038987;28;20124;-89
2023/12/03 08:11:10;;;;;;;43.05;19.63;;;1.80;99.90;;;;;;5039136;28;20120;-89
2023/12/03 08:13:36;;;;;;;39.90;19.67;;;1.80;99.90;;;;;;5040684;28;20025;-89
2023/12/03 08:16:03;;;;;;;40.50;19.88;;;1.80;99.90;;;;;;5043798;28;20038;-87
2023/12/03 08:18:30;;;;;;;36.22;18.15;;;1.80;99.90;;;;;;5057019;28;20024;-89
2023/12/03 08:20:55;;;;;;;39.63;20.77;;;1.80;99.90;;;;;;5071407;28;20068;-90
2023/12/03 08:23:21;;;;;;;38.45;19.15;;;1.80;99.90;;;;;;5075722;28;20069;-89
2023/12/03 08:25:46;;;;;;;35.33;18.73;;;1.80;99.90;;;;;;5047668;28;20036;-90
2023/12/03 08:28:12;;;;;;;42.97;19.83;;;1.90;99.90;;;;;;5041925;28;20021;-89
2023/12/03 08:30:38;;;;;;;44.90;20.38;;;1.90;99.90;;;;;;5049431;28;20036;-90
2023/12/03 08:33:03;;;;;;;41.85;19.60;;;1.90;99.90;;;;;;5042682;28;20481;-90
2023/12/03 08:35:31;;;;;;;39.95;19.92;;;1.80;99.90;;;;;;5046413;28;20090;-89
2023/12/03 08:37:57;;;;;;;39.78;19.05;;;1.90;99.90;;;;;;5044544;28;20033;-90
2023/12/03 08:40:23;;;;;;;38.05;17.92;;;1.90;99.90;;;;;;5045539;28;20058;-91
2023/12/03 08:42:48;;;;;;;38.20;17.90;;;1.90;99.90;;;;;;5045422;28;20485;-91
2023/12/03 08:45:14;;;;;;;40.00;18.35;;;2.00;99.90;;;;;;5048511;28;20052;-90
2023/12/03 08:47:39;;;;;;;40.13;19.25;;;2.00;99.90;;;;;;5046710;28;20438;-88
2023/12/03 08:50:06;;;;;;;38.60;18.35;;;1.90;99.90;;;;;;5042681;28;20043;-89
2023/12/03 08:52:31;;;;;;;39.50;17.73;;;2.00;99.90;;;;;;5050561;28;20040;-89
2023/12/03 08:54:57;;;;;;;38.17;18.30;;;2.00;99.90;;;;;;5039741;28;20049;-90
2023/12/03 08:57:23;;;;;;;35.83;17.50;;;2.00;99.90;;;;;;5047047;28;20474;-89
2023/12/03 08:59:50;;;;;;;38.03;17.70;;;2.00;99.90;;;;;;5033501;28;20021;-89
2023/12/03 09:02:16;;;;;;;34.45;17.17;;;2.10;99.90;;;;;;5034505;28;20386;-88
2023/12/03 09:04:42;;;;;;;36.25;18.58;;;2.10;99.90;;;;;;5034360;28;20050;-89
2023/12/03 09:07:07;;;;;;;38.33;18.38;;;2.10;99.90;;;;;;5034356;28;20055;-89
2023/12/03 09:09:33;;;;;;;40.95;19.77;;;2.10;99.90;;;;;;5047690;28;20515;-90
2023/12/03 09:11:58;;;;;;;37.47;18.02;;;2.20;99.90;;;;;;5052464;28;20108;-89
2023/12/03 09:14:27;;;;;;;34.08;17.50;;;2.10;99.90;;;;;;5040697;28;20024;-90
2023/12/03 09:16:53;;;;;;;32.40;17.35;;;2.20;99.90;;;;;;5049955;28;20041;-90
2023/12/03 09:19:19;;;;;;;37.35;17.17;;;2.20;99.90;;;;;;5040427;28;20373;-91
2023/12/03 09:21:45;;;;;;;33.28;15.27;;;2.20;99.90;;;;;;5057723;28;20095;-92
2023/12/03 09:24:11;;;;;;;32.10;16.52;;;2.20;99.90;;;;;;5044515;28;20027;-91
2023/12/03 09:26:37;;;;;;;31.30;16.45;;;2.30;99.90;;;;;;5043854;28;20148;-92
2023/12/03 09:29:02;;;;;;;30.40;14.45;;;2.30;99.90;;;;;;5035432;28;20120;-92
2023/12/03 09:31:28;;;;;;;29.00;15.18;;;2.30;99.90;;;;;;5052432;28;20028;-93
2023/12/03 09:33:53;;;;;;;27.23;14.48;;;2.40;99.90;;;;;;5053343;28;20029;-91
2023/12/03 09:36:19;;;;;;;26.90;14.02;;;2.40;99.90;;;;;;5041452;28;20033;-90
2023/12/03 09:38:45;;;;;;;30.17;14.57;;;2.40;99.90;;;;;;5036741;28;20033;-91
2023/12/03 09:41:13;;;;;;;31.05;16.02;;;2.90;99.90;;;;;;5034621;28;20061;-91
2023/12/03 09:43:41;;;;;;;38.13;15.13;;;2.40;99.90;;;;;;5033652;28;20034;-89
2023/12/03 09:46:14;;;;;;;26.73;14.73;;;2.40;99.90;;;;;;5050216;28;20033;-88
2023/12/03 09:48:42;;;;;;;28.20;14.80;;;2.40;99.90;;;;;;5053690;28;20025;-90
2023/12/03 09:51:10;;;;;;;30.27;15.70;;;2.40;99.90;;;;;;5053623;28;20033;-88
2023/12/03 09:53:42;;;;;;;33.33;15.52;;;2.50;99.90;;;;;;5038502;28;20482;-92
2023/12/03 09:56:08;;;;;;;30.10;16.23;;;2.50;99.90;;;;;;5046353;28;20048;-90
2023/12/03 09:58:33;;;;;;;28.20;13.68;;;2.50;99.90;;;;;;5048490;28;20022;-91
2023/12/03 10:01:00;;;;;;;27.67;14.43;;;2.50;99.90;;;;;;5041854;28;20055;-90
2023/12/03 10:03:26;;;;;;;31.60;14.57;;;2.50;99.90;;;;;;5065789;28;20025;-88
2023/12/03 10:05:51;;;;;;;32.22;15.35;;;2.60;99.90;;;;;;5064522;28;20044;-88
2023/12/03 10:08:17;;;;;;;24.15;13.63;;;2.60;99.90;;;;;;5055274;28;20025;-90
2023/12/03 10:10:46;;;;;;;25.08;13.15;;;3.40;99.90;;;;;;5055678;28;20086;-91
2023/12/03 10:13:13;;;;;;;26.40;13.90;;;2.60;99.90;;;;;;5052811;28;20121;-93
2023/12/03 10:15:39;;;;;;;29.60;13.57;;;2.60;99.90;;;;;;5043861;28;20045;-90
2023/12/03 10:18:05;;;;;;;25.25;12.80;;;2.60;99.90;;;;;;5042875;28;20032;-91
2023/12/03 10:20:31;;;;;;;22.55;12.40;;;2.60;99.90;;;;;;5049086;28;20032;-91
2023/12/03 10:22:58;;;;;;;20.42;11.27;;;2.60;99.90;;;;;;5050703;28;20028;-85
2023/12/03 10:25:31;;;;;;;24.13;12.57;;;2.60;99.90;;;;;;5045644;28;20032;-87
2023/12/03 10:28:08;;;;;;;22.58;11.60;;;3.00;99.90;;;;;;5037747;28;20045;-86
2023/12/03 10:30:35;;;;;;;23.27;12.18;;;2.70;99.90;;;;;;5034713;28;20017;-86
2023/12/03 10:33:01;;;;;;;21.63;11.30;;;2.70;99.90;;;;;;5038309;28;20030;-88
2023/12/03 10:35:33;;;;;;;27.70;13.20;;;2.70;99.90;;;;;;5040003;28;20026;-85
2023/12/03 10:37:58;;;;;;;23.35;12.00;;;2.70;99.90;;;;;;5042157;28;20473;-85
2023/12/03 10:40:25;;;;;;;26.58;13.73;;;2.70;99.90;;;;;;5035239;28;20033;-87
2023/12/03 10:42:51;;;;;;;23.77;12.43;;;2.70;99.90;;;;;;5033495;28;20029;-89
2023/12/03 10:45:16;;;;;;;26.90;13.48;;;2.70;99.90;;;;;;5032550;28;20028;-87
2023/12/03 10:47:43;;;;;;;27.52;13.38;;;2.70;99.90;;;;;;5032126;28;20112;-88
2023/12/03 10:50:12;;;;;;;28.67;14.13;;;2.70;99.90;;;;;;5047810;28;20026;-89
2023/12/03 10:52:39;;;;;;;26.92;13.65;;;2.70;99.90;;;;;;5032077;28;20029;-89
2023/12/03 10:55:06;;;;;;;25.98;14.18;;;2.60;99.90;;;;;;5034537;28;20448;-90
2023/12/03 10:57:38;;;;;;;30.38;14.20;;;2.70;99.90;;;;;;5049265;28;20029;-86
2023/12/03 11:00:09;;;;;;;29.17;14.45;;;2.60;99.90;;;;;;5037322;28;20365;-88
2023/12/03 11:02:46;;;;;;;27.73;13.95;;;2.60;99.90;;;;;;5033094;28;20021;-87
2023/12/03 11:05:24;;;;;;;26.45;14.38;;;2.70;99.90;;;;;;5033461;28;20413;-86
2023/12/03 11:07:51;;;;;;;24.85;13.43;;;2.70;99.90;;;;;;5036000;28;20127;-87
2023/12/03 11:10:17;;;;;;;27.55;14.60;;;2.70;99.90;;;;;;5041945;28;20136;-91
2023/12/03 11:12:43;;;;;;;29.13;13.25;;;2.70;99.90;;;;;;5057195;28;20497;-89
2023/12/03 11:15:11;;;;;;;25.85;13.10;;;2.60;99.90;;;;;;5046922;28;20064;-89
2023/12/03 11:17:44;;;;;;;26.67;13.82;;;2.70;99.90;;;;;;5051242;28;20060;-91
2023/12/03 11:20:26;;;;;;;28.60;13.45;;;2.70;99.90;;;;;;5042728;28;20033;-86
2023/12/03 11:23:36;;;;;;;25.83;13.77;;;2.60;99.90;;;;;;5042301;28;20056;-87
2023/12/03 11:26:20;;;;;;;31.33;13.40;;;2.60;99.90;;;;;;5042600;28;20099;-90
2023/12/03 11:28:54;;;;;;;28.52;13.98;;;2.60;99.90;;;;;;5036283;28;20508;-87
2023/12/03 11:31:20;;;;;;;25.13;12.80;;;2.70;99.90;;;;;;5038567;28;20469;-88
2023/12/03 11:34:09;;;;;;;26.15;12.88;;;2.70;99.90;;;;;;5038574;28;20044;-89
2023/12/03 11:36:49;;;;;;;29.77;13.25;;;2.70;99.90;;;;;;5049496;28;20091;-89
2023/12/03 11:39:15;;;;;;;24.45;13.13;;;2.70;99.90;;;;;;5050123;28;20035;-88
2023/12/03 11:41:44;;;;;;;31.45;13.57;;;2.80;99.90;;;;;;5040602;28;20493;-86
2023/12/03 11:44:20;;;;;;;28.60;14.13;;;2.80;99.90;;;;;;5049804;28;20091;-88
2023/12/03 11:46:50;;;;;;;22.92;12.32;;;2.90;99.90;;;;;;5065848;28;20036;-88
2023/12/03 11:49:17;;;;;;;23.92;12.70;;;2.90;99.90;;;;;;5047560;28;20033;-86
2023/12/03 11:51:46;;;;;;;26.33;13.25;;;2.90;99.90;;;;;;5045509;28;20041;-87
2023/12/03 11:54:19;;;;;;;25.65;12.85;;;2.90;99.90;;;;;;5031708;28;20373;-86
2023/12/03 11:56:45;;;;;;;23.05;13.13;;;3.00;99.90;;;;;;5039236;28;20389;-85
2023/12/03 11:59:14;;;;;;;27.55;13.43;;;3.00;99.90;;;;;;5032312;28;20028;-87
2023/12/03 12:01:39;;;;;;;26.60;12.50;;;3.10;99.90;;;;;;5035853;28;20056;-85
2023/12/03 12:04:05;;;;;;;24.05;12.95;;;3.10;99.90;;;;;;5046854;28;20096;-86
2023/12/03 12:06:31;;;;;;;23.15;12.05;;;3.20;99.90;;;;;;5043160;28;20090;-88
2023/12/03 12:08:58;;;;;;;25.63;11.82;;;3.20;99.90;;;;;;5061261;28;20032;-89
2023/12/03 12:11:24;;;;;;;22.65;11.65;;;3.30;99.90;;;;;;5063806;28;20029;-89
2023/12/03 12:13:50;;;;;;;19.38;11.25;;;3.30;99.90;;;;;;5058323;28;20037;-90
2023/12/03 12:16:16;;;;;;;24.52;12.57;;;3.40;99.90;;;;;;5058299;28;20041;-88
2023/12/03 12:18:41;;;;;;;19.73;10.88;;;3.50;99.90;;;;;;5049440;28;20053;-89
2023/12/03 12:21:11;;;;;;;21.73;11.30;;;3.40;99.90;;;;;;5051761;28;20465;-88
2023/12/03 12:23:37;;;;;;;20.58;10.57;;;3.50;99.90;;;;;;5046563;28;20485;-89
2023/12/03 12:26:03;;;;;;;23.60;13.02;;;3.50;99.90;;;;;;5052290;28;20055;-87
2023/12/03 12:28:29;;;;;;;21.58;11.65;;;3.50;99.90;;;;;;5042614;28;20163;-88
2023/12/03 12:30:55;;;;;;;21.17;11.70;;;3.50;99.90;;;;;;5051377;28;20116;-91
2023/12/03 12:33:21;;;;;;;23.83;11.63;;;3.60;99.90;;;;;;5046668;28;20033;-91